Latest Coastal Weather Observations for Redcliffe

IDQ60701

Issued at 5:21 am EST Saturday 25 February 2017 (issued every 10 minutes, with the page automatically refreshed every 10 minutes)

About coastal observations | Map of coastal stations | Coastal observations for QLD | Marine services | Other Formats
Station Details ID: 040958 Name: REDCLIFFE Lat: -27.22 Lon: 153.09 Height: 12.6 m
Data from the previous 72 hours. | See also: Recent months at Redcliffe
Date/Time
EST
Temp
°C
Wind Pressure Rain since
9am
mm
Weather Cloud Vis
km
Sea
Height
m
Swell
Dir  Spd
kts
Gust
kts
hPa Trend Height
m
Period
s
Dir
25/05:00am 22.3 S 13 16 1015.8 - 0.0 - - - - - - -
25/04:30am 22.5 S 13 17 1015.6 - 0.0 - - - - - - -
25/04:00am 22.6 S 14 16 1015.5 - 0.0 - - - - - - -
25/03:30am 22.8 S 14 16 1015.1 - 0.0 - - - - - - -
25/03:00am 22.8 S 14 16 1015.0 - 0.0 - - - - - - -
25/02:30am 23.1 S 10 15 1015.2 - 0.0 - - - - - - -
25/02:00am 24.4 SSE 11 15 1015.2 - 0.0 - - - - - - -
25/01:30am 24.4 SE 11 15 1015.2 - 0.0 - - - - - - -
25/01:00am 24.6 SE 11 14 1015.4 - 0.0 - - - - - - -
25/12:30am 24.8 SE 12 15 1015.7 - 0.0 - - - - - - -
25/12:00am 24.8 SE 10 13 1015.8 - 0.0 - - - - - - -
 
Date/Time
EST
Temp
°C
Wind Pressure Rain since
9am
mm
Weather Cloud Vis
km
Sea
Height
m
Swell
Dir  Spd
kts
Gust
kts
hPa Trend Height
m
Period
s
Dir
24/11:30pm 24.6 SE 11 14 1016.1 - 0.0 - - - - - - -
24/11:00pm 24.8 ESE 11 15 1016.4 - 0.0 - - - - - - -
24/10:30pm 25.1 SE 11 15 1016.6 - 0.0 - - - - - - -
24/10:00pm 25.2 SE 11 14 1016.8 - 0.0 - - - - - - -
24/09:30pm 25.4 SE 11 14 1016.9 - 0.0 - - - - - - -
24/09:00pm 25.3 ESE 12 15 1017.1 - 0.0 - - - - - - -
24/08:30pm 25.3 ESE 11 14 1017.2 - 0.0 - - - - - - -
24/08:00pm 25.5 ESE 12 15 1017.0 - 0.0 - - - - - - -
24/07:30pm 25.5 ESE 12 15 1016.8 - 0.0 - - - - - - -
24/07:00pm 25.7 ESE 12 16 1016.6 - 0.0 - - - - - - -
24/06:30pm 25.7 ESE 13 16 1016.4 - 0.0 - - - - - - -
24/06:00pm 26.0 ESE 13 16 1016.1 - 0.0 - - - - - - -
24/05:30pm 26.5 E 15 17 1015.8 - 0.0 - - - - - - -
24/05:00pm 26.7 E 14 16 1015.6 - 0.0 - - - - - - -
24/04:30pm 27.2 E 15 18 1015.7 - 0.0 - - - - - - -
24/04:00pm 27.2 E 14 16 1015.6 - 0.0 - - - - - - -
24/03:30pm 27.4 E 15 17 1015.6 - 0.0 - - - - - - -
24/03:00pm 28.1 ESE 12 15 1015.6 - 0.0 - - - - - - -
24/02:30pm 27.7 ESE 14 16 1016.0 - 0.0 - - - - - - -
24/02:00pm 28.4 ESE 14 15 1016.2 - 0.0 - - - - - - -
24/01:30pm 28.2 ESE 15 17 1016.4 - 0.0 - - - - - - -
24/01:00pm 28.4 SE 14 15 1016.7 - 0.0 - - - - - - -
24/12:30pm 27.8 SSE 13 15 1017.1 - 0.0 - - - - - - -
24/12:00pm 28.4 SSE 13 15 1017.4 - 0.0 - - - - - - -
24/11:30am 28.4 SSE 13 14 1017.8 - 0.0 - - - - - - -
24/11:00am 28.2 SSE 13 15 1018.1 - 0.0 - - - - - - -
24/10:30am 27.6 SSE 13 16 1018.3 - 0.0 - - - - - - -
24/10:00am 27.6 SSE 10 13 1018.6 - 0.0 - - - - - - -
24/09:30am 27.3 S 10 13 1018.8 - 0.0 - - - - - - -
24/09:00am 26.6 S 10 13 1018.7 - 0.0 - - - - - - -
24/08:30am 26.9 S 12 14 1018.6 - 0.0 - - - - - - -
24/08:00am 25.1 S 13 17 1018.6 - 0.0 - - - - - - -
24/07:30am 24.2 S 11 16 1018.3 - 0.0 - - - - - - -
24/07:00am 23.4 SSW 9 14 1018.0 - 0.0 - - - - - - -
24/06:30am 21.9 SSW 9 11 1017.9 - 0.0 - - - - - - -
24/06:00am 21.0 SSW 8 11 1017.4 - 0.0 - - - - - - -
24/05:30am 21.3 S 10 14 1017.1 - 0.0 - - - - - - -
24/05:00am 20.9 SSW 7 9 1016.8 - 0.0 - - - - - - -
24/04:30am 21.2 S 11 14 1016.8 - 0.0 - - - - - - -
24/04:00am 21.4 S 12 15 1016.9 - 0.0 - - - - - - -
24/03:30am 21.6 S 9 14 1016.9 - 0.0 - - - - - - -
24/03:00am 21.8 SSW 7 10 1017.0 - 0.0 - - - - - - -
24/02:30am 22.2 S 8 11 1017.0 - 0.0 - - - - - - -
24/02:00am 22.3 S 9 13 1017.2 - 0.0 - - - - - - -
24/01:30am 23.1 S 10 14 1017.4 - 0.0 - - - - - - -
24/01:00am 23.6 SSE 11 13 1017.5 - 0.0 - - - - - - -
24/12:30am 23.8 SSE 13 14 1017.8 - 0.0 - - - - - - -
24/12:00am 24.5 S 14 17 1018.0 - 0.0 - - - - - - -
 
Date/Time
EST
Temp
°C
Wind Pressure Rain since
9am
mm
Weather Cloud Vis
km
Sea
Height
m
Swell
Dir  Spd
kts
Gust
kts
hPa Trend Height
m
Period
s
Dir
23/11:30pm 25.0 SE 16 18 1018.2 - 0.0 - - - - - - -
23/11:00pm 25.2 SE 17 20 1018.2 - 0.0 - - - - - - -
23/10:30pm 25.2 SE 16 19 1018.6 - 0.0 - - - - - - -
23/10:00pm 25.4 SE 15 18 1018.7 - 0.0 - - - - - - -
23/09:30pm 25.3 SE 15 18 1018.7 - 0.0 - - - - - - -
23/09:00pm 25.4 SE 15 18 1018.8 - 0.0 - - - - - - -
23/08:30pm 25.5 SE 15 18 1018.7 - 0.0 - - - - - - -
23/08:00pm 25.5 SE 15 19 1018.5 - 0.0 - - - - - - -
23/07:30pm 25.5 SE 15 19 1018.3 - 0.0 - - - - - - -
23/07:00pm 25.9 SE 14 17 1018.1 - 0.0 - - - - - - -
23/06:30pm 25.9 ESE 15 17 1017.8 - 0.0 - - - - - - -
23/06:00pm 25.8 ESE 16 19 1017.5 - 0.0 - - - - - - -
23/05:30pm 26.7 ESE 16 19 1017.3 - 0.0 - - - - - - -
23/05:00pm 26.8 SE 15 18 1017.1 - 0.0 - - - - - - -
23/04:30pm 27.0 ESE 15 19 1016.9 - 0.0 - - - - - - -
23/04:00pm 27.2 ESE 16 18 1016.9 - 0.0 - - - - - - -
23/03:30pm 26.9 ESE 15 18 1016.9 - 0.0 - - - - - - -
23/03:00pm 27.1 SE 15 18 1016.9 - 0.0 - - - - - - -
23/02:30pm 27.2 ESE 14 17 1017.3 - 0.0 - - - - - - -
23/02:00pm 28.5 SSE 15 17 1017.6 - 0.0 - - - - - - -
23/01:30pm 28.0 SE 14 16 1017.7 - 0.0 - - - - - - -
23/01:00pm 27.3 SE 14 16 1017.8 - 0.0 - - - - - - -
23/12:30pm 28.1 SSE 14 17 1018.1 - 0.0 - - - - - - -
23/12:00pm 27.7 SE 14 16 1018.4 - 0.0 - - - - - - -
23/11:30am 27.9 SSE 14 16 1018.7 - 0.0 - - - - - - -
23/11:00am 28.3 SSE 12 14 1019.0 - 0.0 - - - - - - -
23/10:30am 28.0 SSE 15 18 1019.2 - 0.0 - - - - - - -
23/10:00am 27.1 SSE 14 18 1019.1 - 0.0 - - - - - - -
23/09:30am 26.7 SSE 14 18 1019.1 - 0.0 - - - - - - -
23/09:00am 26.4 S 16 20 1019.1 - 0.0 - - - - - - -
23/08:30am 26.2 S 18 21 1019.0 - 0.0 - - - - - - -
23/08:00am 25.1 S 16 19 1018.9 - 0.0 - - - - - - -
23/07:30am 24.5 S 14 18 1018.7 - 0.0 - - - - - - -
23/07:00am 24.0 S 12 16 1018.5 - 0.0 - - - - - - -
23/06:30am 22.3 S 11 14 1018.0 - 0.0 - - - - - - -
23/06:00am 22.1 S 9 13 1018.0 - 0.0 - - - - - - -
23/05:30am 22.0 S 12 14 1017.7 - 0.0 - - - - - - -
23/05:00am 22.3 S 12 15 1017.5 - 0.0 - - - - - - -
23/04:30am 22.7 S 13 16 1017.5 - 0.0 - - - - - - -
23/04:00am 23.1 S 14 16 1017.3 - 0.0 - - - - - - -
23/03:30am 23.3 S 14 18 1017.3 - 0.0 - - - - - - -
23/03:00am 23.1 S 11 16 1017.5 - 0.0 - - - - - - -
23/02:30am 22.4 S 14 17 1017.6 - 0.0 - - - - - - -
23/02:00am 22.5 SSW 8 11 1017.7 - 0.0 - - - - - - -
23/01:30am 23.0 SSW 10 14 1017.9 - 0.0 - - - - - - -
23/01:00am 23.3 S 9 12 1018.2 - 0.0 - - - - - - -
23/12:30am 24.6 SE 16 19 1018.5 - 0.0 - - - - - - -
23/12:00am 24.7 SE 15 18 1018.6 - 0.0 - - - - - - -
 
Date/Time
EST
Temp
°C
Wind Pressure Rain since
9am
mm
Weather Cloud Vis
km
Sea
Height
m
Swell
Dir  Spd
kts
Gust
kts
hPa Trend Height
m
Period
s
Dir
22/11:30pm 24.8 SE 16 18 1018.9 - 0.0 - - - - - - -
22/11:00pm 24.8 SE 18 21 1019.0 - 0.0 - - - - - - -
22/10:30pm 24.8 SE 16 19 1019.1 - 0.0 - - - - - - -
22/10:00pm 24.6 SE 17 20 1019.3 - 0.0 - - - - - - -
22/09:30pm 24.8 SE 18 22 1019.3 - 0.0 - - - - - - -
22/09:00pm 25.1 SE 19 22 1019.1 - 0.0 - - - - - - -
22/08:30pm 24.9 SE 17 20 1019.1 - 0.0 - - - - - - -
22/08:00pm 25.0 SE 20 25 1018.7 - 0.0 - - - - - - -
22/07:30pm 25.2 SE 20 24 1018.5 - 0.0 - - - - - - -
22/07:00pm 25.3 SE 21 26 1017.8 - 0.0 - - - - - - -
22/06:30pm 25.5 SE 22 27 1017.6 - 0.0 - - - - - - -
22/06:00pm 25.8 SE 20 25 1017.5 - 0.0 - - - - - - -
22/05:30pm 26.4 SE 20 25 1017.0 - 0.0 - - - - - - -
22/05:00pm 26.5 SE 19 23 1017.0 - 0.0 - - - - - - -
22/04:30pm 27.1 SE 20 25 1016.9 - 0.0 - - - - - - -
22/04:00pm 26.6 SE 19 23 1016.8 - 0.0 - - - - - - -
22/03:30pm 26.6 SE 19 22 1016.8 - 0.0 - - - - - - -
22/03:00pm 26.9 SE 19 24 1016.9 - 0.0 - - - - - - -
22/02:30pm 26.7 SE 20 23 1017.1 - 0.0 - - - - - - -
22/02:00pm 26.9 SE 19 22 1017.5 - 0.0 - - - - - - -
22/01:30pm 27.2 SE 18 24 1017.9 - 0.0 - - - - - - -
22/01:00pm 27.0 SSE 18 21 1018.1 - 0.0 - - - - - - -
22/12:30pm 27.8 SSE 19 22 1018.2 - 0.0 - - - - - - -
22/12:00pm 28.3 SSE 18 21 1018.5 - 0.0 - - - - - - -
22/11:30am 28.1 SSE 18 22 1018.8 - 0.0 - - - - - - -
22/11:00am 28.0 SE 17 22 1019.0 - 0.0 - - - - - - -
22/10:30am 27.9 SE 18 22 1019.1 - 0.0 - - - - - - -
22/10:00am 27.8 SSE 18 21 1019.3 - 0.0 - - - - - - -
22/09:30am 27.8 SSE 17 20 1019.4 - 0.0 - - - - - - -
22/09:00am 26.1 SSE 17 19 1019.5 - 0.2 - - - - - - -
22/08:30am 26.0 S 16 18 1019.2 - 0.2 - - - - - - -
22/08:00am 25.8 S 15 17 1019.1 - 0.2 - - - - - - -
22/07:30am 25.2 S 12 16 1019.0 - 0.2 - - - - - - -
22/07:00am 24.6 S 13 16 1018.7 - 0.2 - - - - - - -
22/06:30am 23.9 S 12 15 1018.6 - 0.2 - - - - - - -
22/06:00am 23.6 S 13 16 1018.3 - 0.2 - - - - - - -
22/05:30am 23.6 S 13 17 1018.0 - 0.2 - - - - - - -

Other Formats:

Comma delimited format used in spreadsheet applications
http://www.bom.gov.au/fwo/IDQ60701/IDQ60701.95591.axf

JavaScript Object Notation format (JSON) in row-major order
http://www.bom.gov.au/fwo/IDQ60701/IDQ60701.95591.json